City's sites:

title views votes rating creation
?never been here 430 12 (3.08)  2010-02-07
?pastel negro 655 14 (2.50)  2010-02-07
?dizzy 324 8 (3.38)  2010-02-07
?two pictures from my desktop 900 16 (3.69)  2010-02-09
?broken clock realizes he is the last object left in the ... 471 10 (3.20)  2010-02-09
?heroes of old 646 19 (3.74)  2010-02-09
?mr. price 481 8 (3.25)  2010-02-09
?Music I Like - Part 1 676 10 (3.60)  2010-02-10
?Music I Like - Part 2 426 13 (3.54)  2010-02-10
?Music I Like - Part 3 581 13 (3.69)  2010-02-10
?Music I Like - Part 4 462 5 (3.20)  2010-02-10
?intense 610 9 (3.78)  2010-02-10
?oh SNAP 839 9 (3.22)  2010-02-10
?Music I Like - Part 5 603 9 (3.56)  2010-02-10
?SignlanguageTMND 455 14 (3.86)  2010-02-10
?lol internet (refresh) 693 6 (3.17)  2010-02-12
?Dumbeldore kills snape! 3,417 67 (4.03)  2010-02-12
?prairiedogeric10 tribute site 760 23 (3.96)  2010-02-13
?Legolewdite fan club 1,345 38 (3.87)  2010-02-13
?Connery retires 489 13 (3.85)  2010-02-13
?TOURNEY4: lol internet 609 7 (2.43)  2010-02-15
?Speed Deemon 1,106 23 (3.74)  2010-02-23
?Tribute: ASSCOCKredux 1,750 64 (3.91)  2010-02-23
?some light jazz with Robert De Niro 919 12 (3.50)  2010-02-23
?In What Language 1,517 34 (3.74)  2010-02-24
?go go go go go go go go go go go go go go go go ... 2,122 23 (3.74)  2010-02-24
?FEARCONDOM'S FAMILY Q U I L T 632 11 (3.55)  2010-02-24
?TEST 846 19 (3.84)  2010-02-26
?....someday, oh dream maker DUNANANANAN... 5,171 148 (3.96)  2010-02-28
?DOUGH FUNNIE HOMO DICKS 743 12 (3.58)  2010-03-01
?Using a concrete bricK 633 17 (3.82)  2010-03-01
?I had sex with a Kayan Tribe woman, little help plea... 1,082 11 (3.36)  2010-03-03
?Adventure 4 1,176 18 (3.61)  2010-03-03
?the standoff 503 9 (3.67)  2010-03-03
?alley children 598 11 (3.91)  2010-03-05
?Steven Seagal isn't impressed 9,976 181 (4.17)  2010-03-05
?Daunting Steps 236 7 (3.00)  2010-03-05
?Cruel and Unusual 6,318 163 (4.24)  2010-03-09
?DancehallTMND 500 10 (3.80)  2010-03-12
?FUCK OUT MY FACE 509 5 (2.60)  2010-03-18
?16, no dither 846 18 (3.94)  2010-03-20
?say hi to my girlfriend 1,088 16 (3.81)  2010-03-21
?TT 708 16 (3.88)  2010-03-23
?jimmm thinks about his next five 738 20 (3.80)  2010-03-24
?THE TELEKINETIC MAN 350 18 (3.50)  2010-03-25
?. 142 7 (2.71)  2010-03-26
?1! 402 17 (3.35)  2010-03-26
?Fake crocodile takes it to the limit one more time 635 9 (3.67)  2010-03-27
?croctheme 419 4 (3.25)  2010-03-27
?crocodile site 524 6 (3.50)  2010-03-27
?CROC MAKES A 187 LOOK EASY 226 6 (3.33)  2010-03-27
?New Croc SIte 189 5 (3.40)  2010-03-27
?L 460 19 (3.63)  2010-03-27
?crocodile sIte 384 10 (3.50)  2010-03-30
?Pleasant® 433 8 (3.38)  2010-03-30
?A Lovely Ride 324 13 (3.85)  2010-03-30
?It's glorious today 305 14 (3.64)  2010-04-01
?Na - Zu 460 10 (3.70)  2010-04-01
?WHO'NOWOWOWOW 435 5 (2.60)  2010-04-03
?part of your world 233 5 (3.00)  2010-04-04
?fff 194 4 (3.50)  2010-04-04
?FIve-star webiste 1,103 16 (1.94)  2010-04-04
?Captain Haddock 1,825 28 (3.86)  2010-04-04
?, 305 9 (3.33)  2010-04-05
?indnian 483 7 (2.71)  2010-04-05
?Ricky Manning tribute sIte will be Underway soon ! 277 3 (3.67)  2010-04-06
?Epic Domain Grab 262 6 (2.17)  2010-04-06
?retirement site 182 6 (2.83)  2010-04-06
?Paul newman doesn't drive a VAN 216 4 (3.00)  2010-04-06
?Vince McMan 422 7 (2.86)  2010-04-06
?LOL 356 5 (3.00)  2010-04-06
?wut 361 4 (2.75)  2010-04-06
?www.coachcarter.ytmnd.com 375 8 (1.88)  2010-04-06
?untitled 352 7 (2.14)  2010-04-09
?ExpirimennalTYTMND 433 8 (3.38)  2010-04-09
?jioejejejoijiojiojioejiejoijeoj 471 14 (3.79)  2010-04-09
?Jake Steele catches a fly ball 408 4 (3.50)  2010-04-10
?Jake Steele forgets the milk 392 3 (3.00)  2010-04-10
?Jake Steele just found his watch 374 4 (3.25)  2010-04-10
?Jake Steele grows up a bit 497 7 (2.86)  2010-04-10
?KRA2008 421 5 (2.60)  2010-04-10
?Fuck the world 850 26 (3.88)  2010-04-16
?a sexual guy 555 10 (2.30)  2010-05-12
?well 389 4 (4.25)  2010-09-03
?gay site you can watch while thinking about stuff 1,729 15 (4.07)  2010-09-13
?site dedicated to great warchief 1,348 12 (3.58)  2010-09-16
?38388 915 8 (3.88)  2010-09-16
?watching the world buzz by 571 4 (3.50)  2010-09-16
?what now 1,530 17 (3.94)  2010-09-16